sensor_id;sensor_type;location;lat;lon;timestamp;P1;durP1;ratioP1;P2;durP2;ratioP2
79403;SDS011;68858;48.642;9.142;2024-01-06T00:00:12;7.47;;;5.53;;
79403;SDS011;68858;48.642;9.142;2024-01-06T00:02:38;7.60;;;6.67;;
79403;SDS011;68858;48.642;9.142;2024-01-06T00:05:04;8.17;;;7.30;;
79403;SDS011;68858;48.642;9.142;2024-01-06T00:07:30;8.23;;;6.83;;
79403;SDS011;68858;48.642;9.142;2024-01-06T00:09:56;10.50;;;8.57;;
79403;SDS011;68858;48.642;9.142;2024-01-06T00:12:21;12.27;;;8.83;;
79403;SDS011;68858;48.642;9.142;2024-01-06T00:14:46;12.73;;;8.23;;
79403;SDS011;68858;48.642;9.142;2024-01-06T00:17:12;10.17;;;8.00;;
79403;SDS011;68858;48.642;9.142;2024-01-06T00:19:39;9.53;;;6.83;;
79403;SDS011;68858;48.642;9.142;2024-01-06T00:22:04;9.30;;;6.33;;
79403;SDS011;68858;48.642;9.142;2024-01-06T00:24:29;7.23;;;6.47;;
79403;SDS011;68858;48.642;9.142;2024-01-06T00:26:54;7.23;;;6.30;;
79403;SDS011;68858;48.642;9.142;2024-01-06T00:29:20;8.47;;;6.43;;
79403;SDS011;68858;48.642;9.142;2024-01-06T00:31:45;8.17;;;6.33;;
79403;SDS011;68858;48.642;9.142;2024-01-06T00:34:10;7.87;;;6.27;;
79403;SDS011;68858;48.642;9.142;2024-01-06T00:36:36;6.40;;;5.67;;
79403;SDS011;68858;48.642;9.142;2024-01-06T00:39:01;7.37;;;5.60;;
79403;SDS011;68858;48.642;9.142;2024-01-06T00:41:26;7.57;;;5.73;;
79403;SDS011;68858;48.642;9.142;2024-01-06T00:43:52;5.47;;;4.90;;
79403;SDS011;68858;48.642;9.142;2024-01-06T00:46:18;7.23;;;6.27;;
79403;SDS011;68858;48.642;9.142;2024-01-06T00:48:44;7.13;;;6.20;;
79403;SDS011;68858;48.642;9.142;2024-01-06T00:51:09;9.47;;;7.90;;
79403;SDS011;68858;48.642;9.142;2024-01-06T00:53:34;8.20;;;7.03;;
79403;SDS011;68858;48.642;9.142;2024-01-06T00:56:00;10.37;;;8.00;;
79403;SDS011;68858;48.642;9.142;2024-01-06T00:58:25;8.73;;;6.90;;
79403;SDS011;68858;48.642;9.142;2024-01-06T01:00:51;11.37;;;7.23;;
79403;SDS011;68858;48.642;9.142;2024-01-06T01:03:16;10.60;;;8.07;;
79403;SDS011;68858;48.642;9.142;2024-01-06T01:05:42;11.03;;;7.37;;
79403;SDS011;68858;48.642;9.142;2024-01-06T01:08:08;10.37;;;7.30;;
79403;SDS011;68858;48.642;9.142;2024-01-06T01:10:33;9.67;;;7.90;;
79403;SDS011;68858;48.642;9.142;2024-01-06T01:12:58;9.00;;;7.73;;
79403;SDS011;68858;48.642;9.142;2024-01-06T01:15:24;8.30;;;6.80;;
79403;SDS011;68858;48.642;9.142;2024-01-06T01:17:49;7.50;;;6.70;;
79403;SDS011;68858;48.642;9.142;2024-01-06T01:20:14;7.27;;;5.97;;
79403;SDS011;68858;48.642;9.142;2024-01-06T01:22:40;6.50;;;5.40;;
79403;SDS011;68858;48.642;9.142;2024-01-06T01:25:05;5.80;;;5.20;;
79403;SDS011;68858;48.642;9.142;2024-01-06T01:27:33;7.30;;;5.63;;
79403;SDS011;68858;48.642;9.142;2024-01-06T01:29:59;7.77;;;5.63;;
79403;SDS011;68858;48.642;9.142;2024-01-06T01:32:24;8.80;;;7.37;;
79403;SDS011;68858;48.642;9.142;2024-01-06T01:34:50;8.70;;;6.87;;
79403;SDS011;68858;48.642;9.142;2024-01-06T01:37:15;7.47;;;5.67;;
79403;SDS011;68858;48.642;9.142;2024-01-06T01:39:41;8.67;;;6.07;;
79403;SDS011;68858;48.642;9.142;2024-01-06T01:42:06;9.57;;;6.23;;
79403;SDS011;68858;48.642;9.142;2024-01-06T01:44:32;9.57;;;6.40;;
79403;SDS011;68858;48.642;9.142;2024-01-06T01:46:58;7.23;;;6.07;;
79403;SDS011;68858;48.642;9.142;2024-01-06T01:49:23;11.57;;;7.57;;
79403;SDS011;68858;48.642;9.142;2024-01-06T01:51:49;9.97;;;7.03;;
79403;SDS011;68858;48.642;9.142;2024-01-06T01:54:15;8.20;;;6.40;;
79403;SDS011;68858;48.642;9.142;2024-01-06T01:56:41;7.57;;;6.80;;
79403;SDS011;68858;48.642;9.142;2024-01-06T01:59:13;8.13;;;6.77;;
79403;SDS011;68858;48.642;9.142;2024-01-06T02:01:40;9.03;;;6.77;;
79403;SDS011;68858;48.642;9.142;2024-01-06T02:04:05;9.70;;;6.93;;
79403;SDS011;68858;48.642;9.142;2024-01-06T02:06:32;7.83;;;6.80;;
79403;SDS011;68858;48.642;9.142;2024-01-06T02:08:58;8.83;;;6.70;;
79403;SDS011;68858;48.642;9.142;2024-01-06T02:11:23;8.23;;;6.50;;
79403;SDS011;68858;48.642;9.142;2024-01-06T02:13:49;8.67;;;6.37;;
79403;SDS011;68858;48.642;9.142;2024-01-06T02:16:14;7.60;;;6.43;;
79403;SDS011;68858;48.642;9.142;2024-01-06T02:18:40;9.13;;;6.00;;
79403;SDS011;68858;48.642;9.142;2024-01-06T02:21:05;6.20;;;5.50;;
79403;SDS011;68858;48.642;9.142;2024-01-06T02:23:34;7.57;;;6.23;;
79403;SDS011;68858;48.642;9.142;2024-01-06T02:26:00;7.80;;;6.00;;
79403;SDS011;68858;48.642;9.142;2024-01-06T02:28:26;7.10;;;5.90;;
79403;SDS011;68858;48.642;9.142;2024-01-06T02:30:51;8.40;;;5.53;;
79403;SDS011;68858;48.642;9.142;2024-01-06T02:33:17;7.97;;;6.10;;
79403;SDS011;68858;48.642;9.142;2024-01-06T02:35:47;6.57;;;5.07;;
79403;SDS011;68858;48.642;9.142;2024-01-06T02:38:14;5.73;;;4.87;;
79403;SDS011;68858;48.642;9.142;2024-01-06T02:40:39;6.23;;;5.10;;
79403;SDS011;68858;48.642;9.142;2024-01-06T02:43:05;6.93;;;4.40;;
79403;SDS011;68858;48.642;9.142;2024-01-06T02:45:30;5.70;;;3.90;;
79403;SDS011;68858;48.642;9.142;2024-01-06T02:47:55;5.40;;;3.77;;
79403;SDS011;68858;48.642;9.142;2024-01-06T02:50:21;4.70;;;3.07;;
79403;SDS011;68858;48.642;9.142;2024-01-06T02:52:47;5.27;;;3.30;;
79403;SDS011;68858;48.642;9.142;2024-01-06T02:55:12;6.43;;;4.13;;
79403;SDS011;68858;48.642;9.142;2024-01-06T02:57:38;5.80;;;4.60;;
79403;SDS011;68858;48.642;9.142;2024-01-06T03:00:04;4.67;;;3.70;;
79403;SDS011;68858;48.642;9.142;2024-01-06T03:02:30;4.47;;;3.63;;
79403;SDS011;68858;48.642;9.142;2024-01-06T03:04:56;5.03;;;3.50;;
79403;SDS011;68858;48.642;9.142;2024-01-06T03:07:21;5.77;;;3.67;;
79403;SDS011;68858;48.642;9.142;2024-01-06T03:09:47;4.73;;;3.40;;
79403;SDS011;68858;48.642;9.142;2024-01-06T03:12:13;6.03;;;3.77;;
79403;SDS011;68858;48.642;9.142;2024-01-06T03:14:38;4.80;;;3.60;;
79403;SDS011;68858;48.642;9.142;2024-01-06T03:17:04;6.60;;;3.33;;
79403;SDS011;68858;48.642;9.142;2024-01-06T03:19:32;4.50;;;3.50;;
79403;SDS011;68858;48.642;9.142;2024-01-06T03:21:58;5.07;;;3.57;;
79403;SDS011;68858;48.642;9.142;2024-01-06T03:24:25;4.50;;;2.90;;
79403;SDS011;68858;48.642;9.142;2024-01-06T03:26:50;3.90;;;2.70;;
79403;SDS011;68858;48.642;9.142;2024-01-06T03:29:16;4.73;;;2.87;;
79403;SDS011;68858;48.642;9.142;2024-01-06T03:31:42;3.37;;;2.70;;
79403;SDS011;68858;48.642;9.142;2024-01-06T03:34:08;3.90;;;2.80;;
79403;SDS011;68858;48.642;9.142;2024-01-06T03:36:33;3.20;;;2.63;;
79403;SDS011;68858;48.642;9.142;2024-01-06T03:38:59;3.03;;;2.47;;
79403;SDS011;68858;48.642;9.142;2024-01-06T03:41:24;6.17;;;2.70;;
79403;SDS011;68858;48.642;9.142;2024-01-06T03:43:50;3.00;;;2.70;;
79403;SDS011;68858;48.642;9.142;2024-01-06T03:46:15;4.83;;;2.40;;
79403;SDS011;68858;48.642;9.142;2024-01-06T03:48:40;3.77;;;2.23;;
79403;SDS011;68858;48.642;9.142;2024-01-06T03:51:06;6.63;;;3.03;;
79403;SDS011;68858;48.642;9.142;2024-01-06T03:53:32;4.13;;;2.87;;
79403;SDS011;68858;48.642;9.142;2024-01-06T03:55:57;6.93;;;2.93;;
79403;SDS011;68858;48.642;9.142;2024-01-06T03:58:23;4.33;;;2.60;;
79403;SDS011;68858;48.642;9.142;2024-01-06T04:00:48;3.77;;;2.37;;
79403;SDS011;68858;48.642;9.142;2024-01-06T04:03:15;3.37;;;2.50;;
79403;SDS011;68858;48.642;9.142;2024-01-06T04:05:40;4.37;;;2.67;;
79403;SDS011;68858;48.642;9.142;2024-01-06T04:08:05;3.90;;;2.60;;
79403;SDS011;68858;48.642;9.142;2024-01-06T04:10:31;4.00;;;2.57;;
79403;SDS011;68858;48.642;9.142;2024-01-06T04:12:56;5.07;;;2.57;;
79403;SDS011;68858;48.642;9.142;2024-01-06T04:15:21;3.67;;;2.73;;
79403;SDS011;68858;48.642;9.142;2024-01-06T04:17:48;6.13;;;2.50;;
79403;SDS011;68858;48.642;9.142;2024-01-06T04:20:13;5.40;;;2.67;;
79403;SDS011;68858;48.642;9.142;2024-01-06T04:22:39;2.93;;;2.30;;
79403;SDS011;68858;48.642;9.142;2024-01-06T04:25:05;5.53;;;2.90;;
79403;SDS011;68858;48.642;9.142;2024-01-06T04:27:31;3.83;;;2.83;;
79403;SDS011;68858;48.642;9.142;2024-01-06T04:29:59;4.93;;;2.73;;
79403;SDS011;68858;48.642;9.142;2024-01-06T04:32:25;4.30;;;2.73;;
79403;SDS011;68858;48.642;9.142;2024-01-06T04:34:50;3.93;;;2.87;;
79403;SDS011;68858;48.642;9.142;2024-01-06T04:37:16;4.07;;;2.67;;
79403;SDS011;68858;48.642;9.142;2024-01-06T04:39:41;3.40;;;2.80;;
79403;SDS011;68858;48.642;9.142;2024-01-06T04:42:06;6.37;;;4.40;;
79403;SDS011;68858;48.642;9.142;2024-01-06T04:44:32;5.57;;;4.20;;
79403;SDS011;68858;48.642;9.142;2024-01-06T04:46:57;4.53;;;3.53;;
79403;SDS011;68858;48.642;9.142;2024-01-06T04:49:22;4.57;;;3.13;;
79403;SDS011;68858;48.642;9.142;2024-01-06T04:51:48;5.27;;;2.80;;
79403;SDS011;68858;48.642;9.142;2024-01-06T04:54:13;3.50;;;2.60;;
79403;SDS011;68858;48.642;9.142;2024-01-06T04:56:39;4.03;;;2.63;;
79403;SDS011;68858;48.642;9.142;2024-01-06T04:59:04;3.87;;;2.70;;
79403;SDS011;68858;48.642;9.142;2024-01-06T05:01:30;2.87;;;2.50;;
79403;SDS011;68858;48.642;9.142;2024-01-06T05:03:56;3.90;;;2.90;;
79403;SDS011;68858;48.642;9.142;2024-01-06T05:06:23;6.17;;;4.00;;
79403;SDS011;68858;48.642;9.142;2024-01-06T05:08:48;9.97;;;6.53;;
79403;SDS011;68858;48.642;9.142;2024-01-06T05:11:13;12.43;;;8.60;;
79403;SDS011;68858;48.642;9.142;2024-01-06T05:13:39;8.57;;;7.63;;
79403;SDS011;68858;48.642;9.142;2024-01-06T05:16:06;8.27;;;6.90;;
79403;SDS011;68858;48.642;9.142;2024-01-06T05:18:32;9.07;;;7.53;;
79403;SDS011;68858;48.642;9.142;2024-01-06T05:20:58;9.33;;;7.03;;
79403;SDS011;68858;48.642;9.142;2024-01-06T05:23:23;8.60;;;7.20;;
79403;SDS011;68858;48.642;9.142;2024-01-06T05:25:49;7.57;;;5.57;;
79403;SDS011;68858;48.642;9.142;2024-01-06T05:28:14;8.40;;;5.20;;
79403;SDS011;68858;48.642;9.142;2024-01-06T05:30:39;6.53;;;5.20;;
79403;SDS011;68858;48.642;9.142;2024-01-06T05:33:05;7.47;;;4.33;;
79403;SDS011;68858;48.642;9.142;2024-01-06T05:35:30;6.47;;;4.60;;
79403;SDS011;68858;48.642;9.142;2024-01-06T05:37:55;6.13;;;4.40;;
79403;SDS011;68858;48.642;9.142;2024-01-06T05:40:21;5.43;;;4.27;;
79403;SDS011;68858;48.642;9.142;2024-01-06T05:42:46;5.03;;;3.40;;
79403;SDS011;68858;48.642;9.142;2024-01-06T05:45:12;6.77;;;4.13;;
79403;SDS011;68858;48.642;9.142;2024-01-06T05:47:38;6.67;;;4.40;;
79403;SDS011;68858;48.642;9.142;2024-01-06T05:50:04;9.87;;;6.33;;
79403;SDS011;68858;48.642;9.142;2024-01-06T05:52:29;16.70;;;11.60;;
79403;SDS011;68858;48.642;9.142;2024-01-06T05:54:55;14.53;;;10.27;;
79403;SDS011;68858;48.642;9.142;2024-01-06T05:57:21;12.83;;;8.23;;
79403;SDS011;68858;48.642;9.142;2024-01-06T05:59:47;8.70;;;6.70;;
79403;SDS011;68858;48.642;9.142;2024-01-06T06:02:12;7.73;;;5.20;;
79403;SDS011;68858;48.642;9.142;2024-01-06T06:04:38;4.90;;;3.93;;
79403;SDS011;68858;48.642;9.142;2024-01-06T06:07:05;8.37;;;5.97;;
79403;SDS011;68858;48.642;9.142;2024-01-06T06:09:30;9.73;;;8.20;;
79403;SDS011;68858;48.642;9.142;2024-01-06T06:11:55;8.87;;;5.87;;
79403;SDS011;68858;48.642;9.142;2024-01-06T06:14:21;14.53;;;7.90;;
79403;SDS011;68858;48.642;9.142;2024-01-06T06:16:47;14.30;;;9.30;;
79403;SDS011;68858;48.642;9.142;2024-01-06T06:19:13;4.83;;;3.50;;
79403;SDS011;68858;48.642;9.142;2024-01-06T06:21:38;5.70;;;3.50;;
79403;SDS011;68858;48.642;9.142;2024-01-06T06:24:04;4.50;;;3.10;;
79403;SDS011;68858;48.642;9.142;2024-01-06T06:26:30;6.20;;;3.50;;
79403;SDS011;68858;48.642;9.142;2024-01-06T06:29:03;9.23;;;6.40;;
79403;SDS011;68858;48.642;9.142;2024-01-06T06:31:28;18.67;;;13.33;;
79403;SDS011;68858;48.642;9.142;2024-01-06T06:33:54;13.23;;;9.23;;
79403;SDS011;68858;48.642;9.142;2024-01-06T06:36:19;13.80;;;10.40;;
79403;SDS011;68858;48.642;9.142;2024-01-06T06:38:49;14.53;;;10.67;;
79403;SDS011;68858;48.642;9.142;2024-01-06T06:41:15;14.67;;;10.10;;
79403;SDS011;68858;48.642;9.142;2024-01-06T06:43:41;15.03;;;9.60;;
79403;SDS011;68858;48.642;9.142;2024-01-06T06:46:08;12.60;;;8.27;;
79403;SDS011;68858;48.642;9.142;2024-01-06T06:48:33;11.90;;;8.73;;
79403;SDS011;68858;48.642;9.142;2024-01-06T06:51:01;9.70;;;7.47;;
79403;SDS011;68858;48.642;9.142;2024-01-06T06:53:28;9.63;;;7.23;;
79403;SDS011;68858;48.642;9.142;2024-01-06T06:55:54;10.30;;;6.93;;
79403;SDS011;68858;48.642;9.142;2024-01-06T06:58:23;9.63;;;7.07;;
79403;SDS011;68858;48.642;9.142;2024-01-06T07:00:50;5.97;;;4.90;;
79403;SDS011;68858;48.642;9.142;2024-01-06T07:05:47;7.80;;;5.20;;
79403;SDS011;68858;48.642;9.142;2024-01-06T07:10:43;5.77;;;3.50;;
79403;SDS011;68858;48.642;9.142;2024-01-06T07:13:08;4.93;;;4.00;;
79403;SDS011;68858;48.642;9.142;2024-01-06T07:15:41;4.13;;;3.67;;
79403;SDS011;68858;48.642;9.142;2024-01-06T07:18:19;4.43;;;3.30;;
79403;SDS011;68858;48.642;9.142;2024-01-06T07:20:54;4.03;;;3.40;;
79403;SDS011;68858;48.642;9.142;2024-01-06T07:23:19;4.60;;;3.07;;
79403;SDS011;68858;48.642;9.142;2024-01-06T07:25:51;4.03;;;2.70;;
79403;SDS011;68858;48.642;9.142;2024-01-06T07:28:17;4.10;;;2.70;;
79403;SDS011;68858;48.642;9.142;2024-01-06T07:30:44;4.43;;;2.80;;
79403;SDS011;68858;48.642;9.142;2024-01-06T07:33:12;3.17;;;2.40;;
79403;SDS011;68858;48.642;9.142;2024-01-06T07:35:40;4.27;;;2.43;;
79403;SDS011;68858;48.642;9.142;2024-01-06T07:38:19;5.03;;;2.90;;
79403;SDS011;68858;48.642;9.142;2024-01-06T07:40:45;3.60;;;2.63;;
79403;SDS011;68858;48.642;9.142;2024-01-06T07:45:51;6.70;;;6.20;;
79403;SDS011;68858;48.642;9.142;2024-01-06T07:48:17;3.30;;;3.00;;
79403;SDS011;68858;48.642;9.142;2024-01-06T07:50:45;3.00;;;2.53;;
79403;SDS011;68858;48.642;9.142;2024-01-06T07:53:11;7.07;;;2.80;;
79403;SDS011;68858;48.642;9.142;2024-01-06T07:55:37;7.33;;;4.63;;
79403;SDS011;68858;48.642;9.142;2024-01-06T07:58:05;7.63;;;5.23;;
79403;SDS011;68858;48.642;9.142;2024-01-06T08:00:51;7.10;;;5.60;;
79403;SDS011;68858;48.642;9.142;2024-01-06T08:03:17;6.17;;;4.63;;
79403;SDS011;68858;48.642;9.142;2024-01-06T08:05:46;11.10;;;8.10;;
79403;SDS011;68858;48.642;9.142;2024-01-06T08:08:12;7.50;;;5.77;;
79403;SDS011;68858;48.642;9.142;2024-01-06T08:10:39;4.47;;;4.07;;
79403;SDS011;68858;48.642;9.142;2024-01-06T08:13:12;3.33;;;2.60;;
79403;SDS011;68858;48.642;9.142;2024-01-06T08:15:38;4.40;;;2.80;;
79403;SDS011;68858;48.642;9.142;2024-01-06T08:18:04;3.33;;;2.60;;
79403;SDS011;68858;48.642;9.142;2024-01-06T08:20:30;5.37;;;3.10;;
79403;SDS011;68858;48.642;9.142;2024-01-06T08:22:58;4.37;;;2.93;;
79403;SDS011;68858;48.642;9.142;2024-01-06T08:25:25;5.87;;;3.60;;
79403;SDS011;68858;48.642;9.142;2024-01-06T08:27:51;5.17;;;2.90;;
79403;SDS011;68858;48.642;9.142;2024-01-06T08:30:27;4.37;;;3.03;;
79403;SDS011;68858;48.642;9.142;2024-01-06T08:32:56;6.17;;;5.10;;
79403;SDS011;68858;48.642;9.142;2024-01-06T08:35:25;7.87;;;5.07;;
79403;SDS011;68858;48.642;9.142;2024-01-06T08:38:04;5.90;;;3.20;;
79403;SDS011;68858;48.642;9.142;2024-01-06T08:40:31;5.73;;;3.03;;
79403;SDS011;68858;48.642;9.142;2024-01-06T08:42:58;3.60;;;2.30;;
79403;SDS011;68858;48.642;9.142;2024-01-06T08:45:23;3.77;;;2.93;;
79403;SDS011;68858;48.642;9.142;2024-01-06T08:47:48;4.37;;;3.40;;
79403;SDS011;68858;48.642;9.142;2024-01-06T08:50:14;3.00;;;2.70;;
79403;SDS011;68858;48.642;9.142;2024-01-06T08:52:39;4.40;;;2.90;;
79403;SDS011;68858;48.642;9.142;2024-01-06T08:57:43;4.57;;;2.50;;
79403;SDS011;68858;48.642;9.142;2024-01-06T09:02:42;2.33;;;2.03;;
79403;SDS011;68858;48.642;9.142;2024-01-06T09:05:08;5.77;;;2.23;;
79403;SDS011;68858;48.642;9.142;2024-01-06T09:07:33;2.33;;;1.70;;
79403;SDS011;68858;48.642;9.142;2024-01-06T09:10:00;3.33;;;2.00;;
79403;SDS011;68858;48.642;9.142;2024-01-06T09:12:27;2.30;;;1.93;;
79403;SDS011;68858;48.642;9.142;2024-01-06T09:14:56;4.53;;;3.40;;
79403;SDS011;68858;48.642;9.142;2024-01-06T09:17:22;4.70;;;2.57;;
79403;SDS011;68858;48.642;9.142;2024-01-06T09:19:49;2.00;;;1.90;;
79403;SDS011;68858;48.642;9.142;2024-01-06T09:22:16;2.37;;;2.13;;
79403;SDS011;68858;48.642;9.142;2024-01-06T09:24:44;3.13;;;2.30;;
79403;SDS011;68858;48.642;9.142;2024-01-06T09:27:10;2.67;;;2.13;;
79403;SDS011;68858;48.642;9.142;2024-01-06T09:29:37;2.60;;;1.80;;
79403;SDS011;68858;48.642;9.142;2024-01-06T09:34:34;2.53;;;2.33;;
79403;SDS011;68858;48.642;9.142;2024-01-06T09:41:58;2.43;;;1.90;;
79403;SDS011;68858;48.642;9.142;2024-01-06T09:44:24;3.20;;;1.90;;
79403;SDS011;68858;48.642;9.142;2024-01-06T09:46:51;2.70;;;2.00;;
79403;SDS011;68858;48.642;9.142;2024-01-06T09:49:22;2.13;;;1.97;;
79403;SDS011;68858;48.642;9.142;2024-01-06T09:51:48;4.47;;;2.73;;
79403;SDS011;68858;48.642;9.142;2024-01-06T09:54:16;6.13;;;4.70;;
79403;SDS011;68858;48.642;9.142;2024-01-06T09:56:47;3.13;;;2.17;;
79403;SDS011;68858;48.642;9.142;2024-01-06T09:59:14;2.83;;;2.10;;
79403;SDS011;68858;48.642;9.142;2024-01-06T10:01:39;1.70;;;1.60;;
79403;SDS011;68858;48.642;9.142;2024-01-06T10:04:06;4.37;;;3.67;;
79403;SDS011;68858;48.642;9.142;2024-01-06T10:06:31;3.23;;;2.60;;
79403;SDS011;68858;48.642;9.142;2024-01-06T10:14:53;4.20;;;3.60;;
79403;SDS011;68858;48.642;9.142;2024-01-06T10:17:18;4.80;;;4.03;;
79403;SDS011;68858;48.642;9.142;2024-01-06T10:19:47;2.47;;;2.27;;
79403;SDS011;68858;48.642;9.142;2024-01-06T10:22:20;2.50;;;1.50;;
79403;SDS011;68858;48.642;9.142;2024-01-06T10:24:45;2.00;;;1.40;;
79403;SDS011;68858;48.642;9.142;2024-01-06T10:27:11;2.23;;;1.43;;
79403;SDS011;68858;48.642;9.142;2024-01-06T10:29:40;3.83;;;2.03;;
79403;SDS011;68858;48.642;9.142;2024-01-06T10:32:07;1.93;;;1.73;;
79403;SDS011;68858;48.642;9.142;2024-01-06T10:34:34;2.10;;;1.90;;
79403;SDS011;68858;48.642;9.142;2024-01-06T10:37:02;2.37;;;2.00;;
79403;SDS011;68858;48.642;9.142;2024-01-06T10:39:27;2.27;;;1.70;;
79403;SDS011;68858;48.642;9.142;2024-01-06T10:42:01;2.00;;;1.80;;
79403;SDS011;68858;48.642;9.142;2024-01-06T10:47:08;1.97;;;1.67;;
79403;SDS011;68858;48.642;9.142;2024-01-06T10:49:35;2.73;;;1.80;;
79403;SDS011;68858;48.642;9.142;2024-01-06T10:52:06;1.60;;;1.50;;
79403;SDS011;68858;48.642;9.142;2024-01-06T10:54:34;1.67;;;1.57;;
79403;SDS011;68858;48.642;9.142;2024-01-06T10:57:01;2.47;;;1.93;;
79403;SDS011;68858;48.642;9.142;2024-01-06T10:59:29;2.27;;;2.07;;
79403;SDS011;68858;48.642;9.142;2024-01-06T11:02:10;2.00;;;1.80;;
79403;SDS011;68858;48.642;9.142;2024-01-06T11:04:36;1.90;;;1.70;;
79403;SDS011;68858;48.642;9.142;2024-01-06T11:07:02;1.93;;;1.57;;
79403;SDS011;68858;48.642;9.142;2024-01-06T11:09:29;1.47;;;1.30;;
79403;SDS011;68858;48.642;9.142;2024-01-06T11:12:11;1.33;;;1.23;;
79403;SDS011;68858;48.642;9.142;2024-01-06T11:14:40;1.77;;;1.60;;
79403;SDS011;68858;48.642;9.142;2024-01-06T11:17:05;2.30;;;1.80;;
79403;SDS011;68858;48.642;9.142;2024-01-06T11:25:03;5.47;;;4.67;;
79403;SDS011;68858;48.642;9.142;2024-01-06T11:27:30;1.53;;;1.40;;
79403;SDS011;68858;48.642;9.142;2024-01-06T11:29:56;1.60;;;1.13;;
79403;SDS011;68858;48.642;9.142;2024-01-06T11:32:29;1.20;;;1.10;;
79403;SDS011;68858;48.642;9.142;2024-01-06T11:35:10;1.27;;;1.10;;
79403;SDS011;68858;48.642;9.142;2024-01-06T11:40:08;2.70;;;2.07;;
79403;SDS011;68858;48.642;9.142;2024-01-06T11:42:41;2.00;;;1.77;;
79403;SDS011;68858;48.642;9.142;2024-01-06T11:45:08;1.10;;;1.00;;
79403;SDS011;68858;48.642;9.142;2024-01-06T11:47:36;1.47;;;1.37;;
79403;SDS011;68858;48.642;9.142;2024-01-06T11:50:02;1.13;;;1.00;;
79403;SDS011;68858;48.642;9.142;2024-01-06T11:52:35;1.03;;;1.00;;
79403;SDS011;68858;48.642;9.142;2024-01-06T11:55:17;1.57;;;1.40;;
79403;SDS011;68858;48.642;9.142;2024-01-06T11:57:43;1.83;;;1.63;;
79403;SDS011;68858;48.642;9.142;2024-01-06T12:00:09;1.60;;;1.50;;
79403;SDS011;68858;48.642;9.142;2024-01-06T12:02:36;1.37;;;1.10;;
79403;SDS011;68858;48.642;9.142;2024-01-06T12:05:01;3.20;;;2.23;;
79403;SDS011;68858;48.642;9.142;2024-01-06T12:07:27;5.03;;;3.93;;
79403;SDS011;68858;48.642;9.142;2024-01-06T12:10:00;1.30;;;1.20;;
79403;SDS011;68858;48.642;9.142;2024-01-06T12:12:26;1.20;;;1.10;;
79403;SDS011;68858;48.642;9.142;2024-01-06T12:14:55;0.97;;;0.80;;
79403;SDS011;68858;48.642;9.142;2024-01-06T12:17:21;1.20;;;1.10;;
79403;SDS011;68858;48.642;9.142;2024-01-06T12:19:47;2.27;;;2.07;;
79403;SDS011;68858;48.642;9.142;2024-01-06T12:22:13;1.73;;;1.50;;
79403;SDS011;68858;48.642;9.142;2024-01-06T12:24:41;1.20;;;1.10;;
79403;SDS011;68858;48.642;9.142;2024-01-06T12:27:08;1.40;;;1.30;;
79403;SDS011;68858;48.642;9.142;2024-01-06T12:29:37;1.30;;;1.17;;
79403;SDS011;68858;48.642;9.142;2024-01-06T12:32:03;1.10;;;0.70;;
79403;SDS011;68858;48.642;9.142;2024-01-06T12:34:28;1.30;;;1.20;;
79403;SDS011;68858;48.642;9.142;2024-01-06T12:36:54;1.17;;;1.07;;
79403;SDS011;68858;48.642;9.142;2024-01-06T12:39:23;1.97;;;1.43;;
79403;SDS011;68858;48.642;9.142;2024-01-06T12:41:56;1.53;;;0.73;;
79403;SDS011;68858;48.642;9.142;2024-01-06T12:44:22;1.53;;;1.43;;
79403;SDS011;68858;48.642;9.142;2024-01-06T12:46:48;2.20;;;2.00;;
79403;SDS011;68858;48.642;9.142;2024-01-06T12:49:17;2.83;;;2.63;;
79403;SDS011;68858;48.642;9.142;2024-01-06T12:51:45;2.00;;;1.80;;
79403;SDS011;68858;48.642;9.142;2024-01-06T12:54:10;1.93;;;1.83;;
79403;SDS011;68858;48.642;9.142;2024-01-06T12:56:36;1.37;;;1.27;;
79403;SDS011;68858;48.642;9.142;2024-01-06T12:59:02;5.83;;;4.57;;
79403;SDS011;68858;48.642;9.142;2024-01-06T13:01:27;1.60;;;1.30;;
79403;SDS011;68858;48.642;9.142;2024-01-06T13:03:53;1.87;;;1.47;;
79403;SDS011;68858;48.642;9.142;2024-01-06T13:06:19;0.90;;;0.80;;
79403;SDS011;68858;48.642;9.142;2024-01-06T13:08:45;1.00;;;0.90;;
79403;SDS011;68858;48.642;9.142;2024-01-06T13:11:11;0.80;;;0.80;;
79403;SDS011;68858;48.642;9.142;2024-01-06T13:13:36;1.27;;;0.90;;
79403;SDS011;68858;48.642;9.142;2024-01-06T13:16:02;0.90;;;0.90;;
79403;SDS011;68858;48.642;9.142;2024-01-06T13:18:30;1.30;;;1.20;;
79403;SDS011;68858;48.642;9.142;2024-01-06T13:20:55;0.90;;;0.90;;
79403;SDS011;68858;48.642;9.142;2024-01-06T13:23:21;1.87;;;1.00;;
79403;SDS011;68858;48.642;9.142;2024-01-06T13:25:46;0.70;;;0.70;;
79403;SDS011;68858;48.642;9.142;2024-01-06T13:28:13;0.80;;;0.80;;
79403;SDS011;68858;48.642;9.142;2024-01-06T13:30:39;1.30;;;0.80;;
79403;SDS011;68858;48.642;9.142;2024-01-06T13:33:06;0.93;;;0.87;;
79403;SDS011;68858;48.642;9.142;2024-01-06T13:35:31;1.10;;;1.00;;
79403;SDS011;68858;48.642;9.142;2024-01-06T13:37:57;1.00;;;0.90;;
79403;SDS011;68858;48.642;9.142;2024-01-06T13:40:22;0.80;;;0.80;;
79403;SDS011;68858;48.642;9.142;2024-01-06T13:42:48;1.30;;;1.07;;
79403;SDS011;68858;48.642;9.142;2024-01-06T13:45:14;1.17;;;1.00;;
79403;SDS011;68858;48.642;9.142;2024-01-06T13:47:40;0.90;;;0.90;;
79403;SDS011;68858;48.642;9.142;2024-01-06T13:50:07;1.13;;;1.10;;
79403;SDS011;68858;48.642;9.142;2024-01-06T13:52:34;1.53;;;1.33;;
79403;SDS011;68858;48.642;9.142;2024-01-06T13:55:01;1.73;;;1.50;;
79403;SDS011;68858;48.642;9.142;2024-01-06T13:57:27;1.90;;;1.77;;
79403;SDS011;68858;48.642;9.142;2024-01-06T13:59:53;2.33;;;2.13;;
79403;SDS011;68858;48.642;9.142;2024-01-06T14:02:18;2.83;;;2.17;;
79403;SDS011;68858;48.642;9.142;2024-01-06T14:04:44;2.40;;;2.20;;
79403;SDS011;68858;48.642;9.142;2024-01-06T14:07:09;1.70;;;1.60;;
79403;SDS011;68858;48.642;9.142;2024-01-06T14:09:35;1.20;;;1.10;;
79403;SDS011;68858;48.642;9.142;2024-01-06T14:12:01;1.70;;;1.60;;
79403;SDS011;68858;48.642;9.142;2024-01-06T14:14:27;1.43;;;1.30;;
79403;SDS011;68858;48.642;9.142;2024-01-06T14:16:52;1.50;;;1.37;;
79403;SDS011;68858;48.642;9.142;2024-01-06T14:19:20;2.00;;;1.90;;
79403;SDS011;68858;48.642;9.142;2024-01-06T14:21:45;2.40;;;2.10;;
79403;SDS011;68858;48.642;9.142;2024-01-06T14:24:11;2.60;;;2.37;;
79403;SDS011;68858;48.642;9.142;2024-01-06T14:26:37;2.90;;;2.70;;
79403;SDS011;68858;48.642;9.142;2024-01-06T14:29:04;3.40;;;3.00;;
79403;SDS011;68858;48.642;9.142;2024-01-06T14:31:29;3.07;;;2.60;;
79403;SDS011;68858;48.642;9.142;2024-01-06T14:33:54;2.37;;;2.17;;
79403;SDS011;68858;48.642;9.142;2024-01-06T14:36:20;2.60;;;2.40;;
79403;SDS011;68858;48.642;9.142;2024-01-06T14:38:45;2.73;;;2.53;;
79403;SDS011;68858;48.642;9.142;2024-01-06T14:41:11;4.17;;;3.33;;
79403;SDS011;68858;48.642;9.142;2024-01-06T14:43:37;2.47;;;2.27;;
79403;SDS011;68858;48.642;9.142;2024-01-06T14:46:04;2.63;;;2.43;;
79403;SDS011;68858;48.642;9.142;2024-01-06T14:48:30;2.40;;;2.20;;
79403;SDS011;68858;48.642;9.142;2024-01-06T14:50:56;2.53;;;2.33;;
79403;SDS011;68858;48.642;9.142;2024-01-06T14:53:21;2.60;;;2.23;;
79403;SDS011;68858;48.642;9.142;2024-01-06T14:55:48;3.30;;;3.00;;
79403;SDS011;68858;48.642;9.142;2024-01-06T14:58:13;2.20;;;2.00;;
79403;SDS011;68858;48.642;9.142;2024-01-06T15:00:41;2.40;;;2.20;;
79403;SDS011;68858;48.642;9.142;2024-01-06T15:03:06;2.40;;;2.20;;
79403;SDS011;68858;48.642;9.142;2024-01-06T15:05:32;2.80;;;2.60;;
79403;SDS011;68858;48.642;9.142;2024-01-06T15:07:58;2.47;;;2.10;;
79403;SDS011;68858;48.642;9.142;2024-01-06T15:10:23;3.13;;;2.83;;
79403;SDS011;68858;48.642;9.142;2024-01-06T15:12:49;3.17;;;2.87;;
79403;SDS011;68858;48.642;9.142;2024-01-06T15:15:18;4.30;;;3.90;;
79403;SDS011;68858;48.642;9.142;2024-01-06T15:17:43;2.97;;;2.53;;